KAGC/AGC METAR and TAF weather

Enter ICAO airport designator
Station Type Date Time Source
KAGC METAR 2022/01/27 22:53 UTC NOAA

KAGC 272253Z 22009KT 10SM OVC038 00/M13 A3011 RMK AO2 SLP224 T00001133


Station Type Date Time Source
KAGC Decoded METAR 2022/01/27 22:53 UTC NOAA

PITTSBURGH ALLEGHENY CTY., PA, United States (KAGC) 40-21N 079-55W 389M
Jan 27, 2022 - 05:53 PM EST / 2022.01.27 2253 UTC
Wind: from the SW (220 degrees) at 10 MPH (9 KT):0
Visibility: 10 mile(s):0
Sky conditions: overcast
Temperature: 32.0 F (0.0 C)
Windchill: 23 F (-5 C):1
Dew Point: 8.1 F (-13.3 C)
Relative Humidity: 35%
Pressure (altimeter): 30.11 in. Hg (1019 hPa)
ob: KAGC 272253Z 22009KT 10SM OVC038 00/M13 A3011 RMK AO2 SLP224 T00001133
cycle: 23

Station Type Date Time Source
KAGC TAF 2022/01/27 18:36 UTC NOAA

TAF KAGC 271733Z 2718/2818 20010KT P6SM BKN100
FM280100 22010KT 5SM -SN OVC025
FM280400 23005KT 5SM -SN OVC015
FM281400 33005KT 5SM BR VCSH BKN015

Example: see airport list